Time;durP1;ratioP1;P1;durP2;ratioP2;P2;SDS_P1;SDS_P2;PMS_P1;PMS_P2;Temp;Humidity;BMP_temperature;BMP_pressure;BME280_temperature;BME280_humidity;BME280_pressure;Samples;Min_cycle;Max_cycle;Signal;HPM_P1;HPM_P2
2022/10/23 00:01:33;;;;;;;15.10;12.07;;;;;;;13.04;63.17;100515.06;5066465;28;20083;-75
2022/10/23 00:04:12;;;;;;;16.00;11.57;;;;;;;13.76;63.38;100629.53;5066395;28;20045;-74
2022/10/23 00:06:39;;;;;;;20.00;12.30;;;;;;;13.67;63.47;100629.59;5066375;28;20159;-74
2022/10/23 00:09:07;;;;;;;22.38;13.27;;;;;;;13.69;63.60;100628.69;5066108;28;20122;-74
2022/10/23 00:11:33;;;;;;;22.00;12.73;;;;;;;13.36;63.84;100565.75;5054231;28;20041;-74
2022/10/23 00:14:01;;;;;;;17.77;11.75;;;;;;;12.93;63.89;100510.78;5065240;28;20052;-74
2022/10/23 00:16:27;;;;;;;22.38;12.95;;;;;;;13.51;63.66;100611.31;5083145;28;20023;-74
2022/10/23 00:18:52;;;;;;;14.90;11.18;;;;;;;13.54;63.69;100607.75;5078035;28;20400;-74
2022/10/23 00:21:18;;;;;;;23.05;13.07;;;;;;;13.07;63.94;100517.66;5082466;28;20514;-74
2022/10/23 00:23:44;;;;;;;20.60;12.27;;;;;;;13.55;63.74;100596.31;5062427;28;20041;-74
2022/10/23 00:26:14;;;;;;;17.77;12.93;;;;;;;13.73;63.71;100608.47;5066124;28;20048;-73
2022/10/23 00:28:41;;;;;;;18.10;11.82;;;;;;;13.64;63.87;100598.88;5069817;28;20056;-73
2022/10/23 00:31:07;;;;;;;21.25;12.23;;;;;;;13.64;63.98;100609.41;5070046;28;20040;-75
2022/10/23 00:33:32;;;;;;;20.38;12.30;;;;;;;12.96;63.73;100482.63;5067969;28;20044;-74
2022/10/23 00:35:58;;;;;;;18.55;12.23;;;;;;;12.99;63.76;100474.69;5055565;28;20052;-74
2022/10/23 00:38:23;;;;;;;21.20;13.52;;;;;;;13.73;63.41;100611.09;5070047;28;20037;-73
2022/10/23 00:40:49;;;;;;;24.75;14.02;;;;;;;12.99;63.39;100477.31;5070725;28;20042;-73
2022/10/23 00:43:17;;;;;;;19.58;12.35;;;;;;;13.03;63.24;100483.44;5080666;28;20024;-74
2022/10/23 00:45:43;;;;;;;15.48;12.32;;;;;;;13.08;63.09;100493.03;5069111;28;20044;-73
2022/10/23 00:48:09;;;;;;;16.73;11.75;;;;;;;13.71;63.53;100599.69;5068073;28;20086;-74
2022/10/23 00:50:34;;;;;;;15.20;11.40;;;;;;;13.01;63.60;100477.31;5058359;28;20051;-74
2022/10/23 00:53:03;;;;;;;15.77;11.15;;;;;;;13.75;63.23;100592.63;5061443;28;20024;-74
2022/10/23 00:55:32;;;;;;;18.77;12.63;;;;;;;12.98;64.17;100485.25;5067719;28;20035;-74
2022/10/23 00:57:58;;;;;;;20.55;13.70;;;;;;;13.61;64.18;100606.81;5066673;28;20041;-72
2022/10/23 01:00:27;;;;;;;15.60;12.38;;;;;;;13.63;63.33;100597.13;5066510;28;20052;-72
2022/10/23 01:02:54;;;;;;;16.65;12.27;;;;;;;12.84;64.04;100470.44;5064551;28;20028;-73
2022/10/23 01:05:42;;;;;;;19.67;12.77;;;;;;;13.71;63.54;100592.66;5066135;28;20040;-73
2022/10/23 01:08:27;;;;;;;17.15;13.25;;;;;;;13.68;63.24;100571.59;5071161;28;20040;-74
2022/10/23 01:11:29;;;;;;;18.73;13.02;;;;;;;13.68;63.79;100587.41;5068130;28;20020;-75
2022/10/23 01:14:09;;;;;;;24.70;12.27;;;;;;;13.58;64.12;100596.31;5063127;28;20139;-74
2022/10/23 01:16:50;;;;;;;19.65;13.68;;;;;;;13.67;63.58;100579.50;5055313;28;20116;-74
2022/10/23 01:19:31;;;;;;;25.13;13.82;;;;;;;13.22;63.88;100508.72;5077187;28;20054;-73
2022/10/23 01:22:29;;;;;;;19.90;12.95;;;;;;;13.02;64.13;100484.34;5066108;28;20049;-73
2022/10/23 01:25:26;;;;;;;20.85;12.02;;;;;;;13.72;63.91;100583.00;5080072;28;20064;-73
2022/10/23 01:27:56;;;;;;;20.55;12.57;;;;;;;12.93;64.48;100485.28;5078204;28;20049;-73
2022/10/23 01:30:22;;;;;;;19.45;13.10;;;;;;;12.80;64.93;100470.47;5068046;28;20468;-74
2022/10/23 01:32:55;;;;;;;21.23;13.98;;;;;;;12.82;64.71;100480.09;5074305;28;20036;-76
2022/10/23 01:35:24;;;;;;;;;;;;;;;13.55;64.62;100575.22;5069578;28;20036;-73
2022/10/23 01:38:02;;;;;;;26.02;14.50;;;;;;;13.64;64.16;100574.28;5068692;28;19930;-73
2022/10/23 01:40:36;;;;;;;23.40;12.40;;;;;;;13.57;64.37;100572.59;5080141;28;20040;-73
2022/10/23 01:43:12;;;;;;;18.88;12.85;;;;;;;13.62;64.59;100576.03;5067874;28;20049;-72
2022/10/23 01:45:40;;;;;;;18.88;11.85;;;;;;;13.00;64.05;100470.31;5069732;28;20029;-74
2022/10/23 01:48:11;;;;;;;15.38;11.93;;;;;;;13.68;64.32;100582.13;5066660;28;20666;-74
2022/10/23 01:50:40;;;;;;;15.90;12.90;;;;;;;13.25;63.99;100492.00;5086634;28;20044;-73
2022/10/23 01:53:06;;;;;;;19.45;13.02;;;;;;;13.61;65.37;100561.13;5063790;28;20035;-75
2022/10/23 01:55:32;;;;;;;18.85;11.70;;;;;;;13.53;64.70;100532.19;5079132;28;20037;-73
2022/10/23 01:58:01;;;;;;;20.98;11.93;;;;;;;13.02;64.40;100416.72;5069066;28;20055;-73
2022/10/23 02:00:27;;;;;;;20.27;13.55;;;;;;;13.24;64.68;100450.75;5069719;28;20037;-74
2022/10/23 02:02:54;;;;;;;27.33;13.95;;;;;;;13.11;65.30;100434.22;5067365;28;20037;-74
2022/10/23 02:05:24;;;;;;;20.83;12.68;;;;;;;13.73;65.06;100567.13;5077300;28;20037;-73
2022/10/23 02:07:50;;;;;;;24.30;13.95;;;;;;;13.04;64.88;100464.09;5068787;28;20087;-73
2022/10/23 02:10:16;;;;;;;18.70;12.85;;;;;;;13.65;64.11;100547.91;5077805;28;20086;-74
2022/10/23 02:12:50;;;;;;;18.33;13.77;;;;;;;13.79;64.67;100567.94;5089430;28;20036;-74
2022/10/23 02:15:31;;;;;;;23.17;12.27;;;;;;;13.77;65.12;100591.72;5085259;28;20048;-74
2022/10/23 02:18:12;;;;;;;16.23;12.18;;;;;;;13.85;64.02;100587.22;5055983;28;20438;-73
2022/10/23 02:20:50;;;;;;;18.33;13.07;;;;;;;13.88;63.68;100586.31;5089241;28;20068;-75
2022/10/23 02:23:31;;;;;;;18.95;13.32;;;;;;;13.32;63.13;100474.41;5070179;28;20488;-74
2022/10/23 02:26:06;;;;;;;27.92;11.98;;;;;;;13.98;63.06;100587.09;5071347;28;20025;-74
2022/10/23 02:28:42;;;;;;;21.98;13.90;;;;;;;13.37;62.98;100484.03;5074040;28;20032;-73
2022/10/23 02:31:12;;;;;;;18.58;12.82;;;;;;;13.75;63.22;100547.81;5062998;28;20064;-73
2022/10/23 02:33:39;;;;;;;33.08;13.80;;;;;;;13.96;62.94;100597.69;5070688;28;20037;-74
2022/10/23 02:36:05;;;;;;;17.75;12.25;;;;;;;13.91;63.19;100581.91;5063537;28;20040;-73
2022/10/23 02:38:33;;;;;;;22.80;14.63;;;;;;;13.97;62.95;100586.22;5072789;28;20040;-73
2022/10/23 02:41:37;;;;;;;18.05;13.48;;;;;;;14.01;62.68;100576.53;5070329;28;20766;-73
2022/10/23 02:44:23;;;;;;;28.60;13.30;;;;;;;13.33;62.99;100471.78;5048891;28;20104;-73
2022/10/23 02:47:05;;;;;;;25.83;13.38;;;;;;;13.55;62.32;100484.72;5056445;28;20047;-74
2022/10/23 02:49:47;;;;;;;18.02;13.02;;;;;;;14.18;61.70;100586.88;5069083;28;20035;-74
2022/10/23 02:52:19;;;;;;;28.98;13.90;;;;;;;14.23;61.60;100583.28;5067619;28;20051;-73
2022/10/23 02:54:44;;;;;;;28.85;14.45;;;;;;;14.19;61.99;100578.03;5077159;28;20072;-75
2022/10/23 02:57:33;;;;;;;20.65;13.07;;;;;;;14.07;62.06;100565.88;5078430;28;20033;-73
2022/10/23 03:00:17;;;;;;;22.33;13.43;;;;;;;13.72;61.47;100502.09;5073589;28;20102;-73
2022/10/23 03:02:49;;;;;;;18.10;12.85;;;;;;;14.27;61.45;100595.53;5073674;28;20032;-74
2022/10/23 03:05:22;;;;;;;32.47;15.23;;;;;;;14.22;61.46;100567.47;5077359;28;20037;-74
2022/10/23 03:07:48;;;;;;;28.50;11.80;;;;;;;14.17;61.74;100558.75;5075510;28;20151;-73
2022/10/23 03:10:14;;;;;;;21.10;12.52;;;;;;;13.69;61.77;100466.97;5087601;28;20028;-73
2022/10/23 03:12:40;;;;;;;23.98;13.63;;;;;;;13.57;61.94;100462.72;5077843;28;20066;-73
2022/10/23 03:15:06;;;;;;;19.23;13.38;;;;;;;14.21;61.92;100582.44;5087246;28;20043;-73
2022/10/23 03:17:32;;;;;;;27.20;11.93;;;;;;;14.22;61.99;100602.66;5049000;28;20605;-73
2022/10/23 03:19:57;;;;;;;20.85;11.27;;;;;;;13.42;62.13;100461.13;5072029;28;20178;-73
2022/10/23 03:22:23;;;;;;;16.75;11.32;;;;;;;13.56;62.00;100484.72;5067104;28;20063;-74
2022/10/23 03:24:55;;;;;;;20.17;13.70;;;;;;;13.99;62.14;100565.09;5069099;28;20120;-74
2022/10/23 03:27:21;;;;;;;29.40;14.25;;;;;;;14.10;62.54;100606.31;5055616;28;20418;-74
2022/10/23 03:29:46;;;;;;;20.42;12.45;;;;;;;14.07;62.41;100586.97;5068569;28;20047;-74
2022/10/23 03:32:12;;;;;;;20.85;13.23;;;;;;;13.87;62.83;100581.94;5081502;28;20040;-74
2022/10/23 03:34:37;;;;;;;24.52;14.55;;;;;;;13.77;62.49;100564.50;5075143;28;20024;-73
2022/10/23 03:37:03;;;;;;;18.15;14.65;;;;;;;14.06;62.46;100611.63;5065864;28;20532;-75
2022/10/23 03:39:28;;;;;;;29.55;13.10;;;;;;;13.78;62.71;100572.38;5077680;28;20446;-74
2022/10/23 03:41:54;;;;;;;29.98;13.85;;;;;;;13.89;62.69;100607.41;5057528;28;20068;-75
2022/10/23 03:44:19;;;;;;;20.77;12.13;;;;;;;13.28;63.26;100508.72;5067706;28;20369;-73
2022/10/23 03:46:45;;;;;;;19.83;12.15;;;;;;;13.10;62.86;100485.13;5068209;28;20028;-72
2022/10/23 03:49:10;;;;;;;18.40;14.70;;;;;;;13.72;63.62;100599.69;5065508;28;20041;-73
2022/10/23 03:51:36;;;;;;;18.15;12.98;;;;;;;13.79;64.00;100632.16;5056728;28;20050;-74
2022/10/23 03:54:01;;;;;;;16.73;12.68;;;;;;;13.81;64.18;100632.97;5054630;28;20223;-74
2022/10/23 03:56:27;;;;;;;44.55;15.07;;;;;;;13.04;64.16;100501.00;5087296;28;20032;-73
2022/10/23 03:58:52;;;;;;;20.48;12.98;;;;;;;13.06;64.19;100517.66;5070844;28;20457;-74
2022/10/23 04:01:18;;;;;;;19.08;14.35;;;;;;;12.77;64.77;100479.28;5068250;28;20105;-73
2022/10/23 04:03:43;;;;;;;31.48;14.57;;;;;;;13.48;65.34;100644.72;5067848;28;20036;-75
2022/10/23 04:06:09;;;;;;;21.00;13.93;;;;;;;12.79;65.50;100542.47;5067071;28;20045;-73
2022/10/23 04:08:34;;;;;;;20.55;13.60;;;;;;;13.38;65.39;100638.66;5065935;28;20086;-73
2022/10/23 04:11:00;;;;;;;22.77;14.88;;;;;;;13.43;65.53;100650.03;5061992;28;20506;-74
2022/10/23 04:13:25;;;;;;;23.25;15.00;;;;;;;13.40;66.00;100663.25;5079532;28;20032;-73
2022/10/23 04:15:52;;;;;;;23.73;14.85;;;;;;;13.26;66.17;100638.72;5068319;28;20102;-73
2022/10/23 04:18:18;;;;;;;22.80;14.70;;;;;;;13.27;66.85;100651.00;5067105;28;20119;-72
2022/10/23 04:20:46;;;;;;;25.85;15.32;;;;;;;12.96;66.33;100593.25;5070317;28;20136;-73
2022/10/23 04:23:11;;;;;;;24.98;13.85;;;;;;;13.39;66.70;100660.59;5047706;28;20032;-74
2022/10/23 04:25:37;;;;;;;22.55;14.98;;;;;;;12.39;67.76;100561.13;5083885;28;20028;-74
2022/10/23 04:28:02;;;;;;;20.88;13.43;;;;;;;12.48;67.26;100550.56;5082887;28;20055;-75
2022/10/23 04:30:28;;;;;;;23.08;15.02;;;;;;;12.70;67.78;100622.38;5085280;28;20036;-74
2022/10/23 04:32:53;;;;;;;19.38;14.77;;;;;;;12.77;68.74;100653.06;5069877;28;20550;-75
2022/10/23 04:35:19;;;;;;;20.63;14.57;;;;;;;12.29;68.37;100556.78;5058779;28;20394;-73
2022/10/23 04:37:45;;;;;;;25.33;14.13;;;;;;;12.52;68.63;100580.34;5067145;28;20057;-74
2022/10/23 04:40:10;;;;;;;18.40;14.77;;;;;;;12.73;68.45;100625.00;5086848;28;20047;-73
2022/10/23 04:42:36;;;;;;;22.52;15.73;;;;;;;12.92;69.43;100678.44;5076780;28;20532;-73
2022/10/23 04:45:01;;;;;;;21.90;14.00;;;;;;;13.00;69.32;100687.19;5086743;28;20044;-75
2022/10/23 04:47:26;;;;;;;24.73;14.05;;;;;;;12.90;69.87;100682.84;5068379;28;20143;-75
2022/10/23 04:49:52;;;;;;;28.60;15.32;;;;;;;12.75;70.44;100690.81;5065171;28;20033;-75
2022/10/23 04:52:17;;;;;;;25.92;14.80;;;;;;;12.67;70.53;100694.38;5056987;28;20025;-74
2022/10/23 04:54:43;;;;;;;25.17;15.68;;;;;;;12.73;70.80;100719.78;5067407;28;20535;-74
2022/10/23 04:57:08;;;;;;;25.05;15.07;;;;;;;12.81;70.63;100727.66;5080918;28;20085;-75
2022/10/23 04:59:34;;;;;;;28.38;15.48;;;;;;;12.79;70.75;100730.31;5079855;28;20032;-74
2022/10/23 05:01:59;;;;;;;21.10;16.63;;;;;;;12.74;70.56;100718.06;5080786;28;20043;-75
2022/10/23 05:04:25;;;;;;;21.88;17.00;;;;;;;11.99;71.42;100616.53;5062532;28;20473;-75
2022/10/23 05:06:51;;;;;;;28.30;16.23;;;;;;;11.90;71.61;100599.03;5050966;28;20067;-74
2022/10/23 05:09:16;;;;;;;27.77;20.38;;;;;;;12.58;71.87;100735.66;5062147;28;20756;-74
2022/10/23 05:11:41;;;;;;;22.40;17.40;;;;;;;12.84;71.18;100748.72;5066158;28;20178;-75
2022/10/23 05:14:07;;;;;;;25.92;17.30;;;;;;;12.90;71.07;100759.25;5064781;28;20060;-74
2022/10/23 05:17:01;;;;;;;36.63;17.88;;;;;;;12.76;71.59;100767.19;5057663;28;20042;-76
2022/10/23 05:19:33;;;;;;;25.45;16.48;;;;;;;12.66;71.42;100745.25;5053407;28;20076;-76
2022/10/23 05:21:59;;;;;;;31.30;16.50;;;;;;;12.21;71.69;100672.59;5073042;28;20055;-74
2022/10/23 05:24:25;;;;;;;23.73;17.45;;;;;;;12.11;71.38;100655.94;5064544;28;20036;-73
2022/10/23 05:26:51;;;;;;;23.30;16.42;;;;;;;12.75;71.74;100772.44;5063331;28;20058;-74
2022/10/23 05:29:20;;;;;;;26.92;16.30;;;;;;;11.95;72.42;100663.00;5067967;28;20067;-74
2022/10/23 05:31:48;;;;;;;30.23;18.05;;;;;;;12.66;71.99;100770.72;5072869;28;20032;-74
2022/10/23 05:34:15;;;;;;;21.10;17.30;;;;;;;12.86;71.87;100799.63;5062494;28;20151;-73
2022/10/23 05:36:41;;;;;;;34.20;18.13;;;;;;;12.06;72.02;100669.97;5063428;28;20040;-74
2022/10/23 05:39:08;;;;;;;24.83;16.25;;;;;;;12.80;72.18;100805.78;5073739;28;20567;-73
2022/10/23 05:41:33;;;;;;;31.00;17.92;;;;;;;12.11;72.18;100694.53;5059092;28;20037;-73
2022/10/23 05:43:58;;;;;;;24.25;16.85;;;;;;;12.84;72.06;100809.28;5047314;28;20040;-74
2022/10/23 05:46:26;;;;;;;37.05;17.42;;;;;;;12.18;71.79;100694.50;5072774;28;20465;-74
2022/10/23 05:48:52;;;;;;;24.80;16.10;;;;;;;12.55;71.49;100744.44;5076850;28;20391;-75
2022/10/23 05:51:21;;;;;;;23.42;16.48;;;;;;;12.56;71.45;100755.84;5074383;28;20144;-74
2022/10/23 05:53:51;;;;;;;26.67;16.10;;;;;;;13.03;71.73;100845.22;5059265;28;20050;-73
2022/10/23 05:56:18;;;;;;;32.55;18.20;;;;;;;12.90;72.29;100825.09;5073912;28;20051;-73
2022/10/23 05:58:44;;;;;;;22.73;16.55;;;;;;;12.22;71.31;100704.16;5079671;28;20032;-75
2022/10/23 06:01:12;;;;;;;20.98;16.55;;;;;;;13.00;72.06;100844.38;5062785;28;20127;-75
2022/10/23 06:03:38;;;;;;;23.60;17.88;;;;;;;13.02;71.64;100853.16;5081737;28;20036;-74
2022/10/23 06:06:05;;;;;;;22.08;16.35;;;;;;;13.05;71.59;100840.81;5076851;28;20400;-74
2022/10/23 06:08:31;;;;;;;21.83;16.10;;;;;;;13.02;71.83;100843.47;5052119;28;20051;-73
2022/10/23 06:10:56;;;;;;;29.52;16.13;;;;;;;12.87;71.46;100801.38;5067119;28;20033;-74
2022/10/23 06:13:22;;;;;;;21.75;17.13;;;;;;;13.07;71.09;100825.91;5084498;28;20086;-74
2022/10/23 06:15:48;;;;;;;22.52;17.05;;;;;;;12.54;71.17;100736.53;5081212;28;20084;-74
2022/10/23 06:18:13;;;;;;;29.13;17.85;;;;;;;13.29;71.22;100854.81;5083721;28;20090;-74
2022/10/23 06:20:40;;;;;;;24.00;17.17;;;;;;;13.05;70.97;100813.63;5079344;28;20036;-73
2022/10/23 06:23:06;;;;;;;21.45;16.45;;;;;;;13.41;70.77;100861.81;5069059;28;20029;-74
2022/10/23 06:25:32;;;;;;;30.58;15.57;;;;;;;13.45;70.81;100866.19;5080631;28;20040;-74
2022/10/23 06:27:57;;;;;;;25.08;16.83;;;;;;;13.34;71.06;100865.34;5077396;28;20053;-74
2022/10/23 06:30:23;;;;;;;33.40;18.40;;;;;;;12.67;70.70;100743.53;5078238;28;20400;-74
2022/10/23 06:32:49;;;;;;;34.38;17.85;;;;;;;12.81;70.68;100775.94;5076021;28;20702;-74
2022/10/23 06:35:15;;;;;;;24.25;16.75;;;;;;;13.36;70.61;100860.94;5077291;28;20038;-74
2022/10/23 06:37:41;;;;;;;22.77;17.05;;;;;;;12.94;70.27;100783.78;5072989;28;20375;-73
2022/10/23 06:40:07;;;;;;;32.95;16.15;;;;;;;13.58;70.77;100901.25;5077978;28;20066;-74
2022/10/23 06:42:33;;;;;;;32.33;16.70;;;;;;;13.70;70.25;100914.41;5058827;28;20045;-74
2022/10/23 06:44:59;;;;;;;20.65;17.83;;;;;;;13.13;70.29;100816.22;5064851;28;20052;-74
2022/10/23 06:47:24;;;;;;;24.48;17.60;;;;;;;13.78;70.25;100915.25;5060304;28;20509;-75
2022/10/23 06:49:50;;;;;;;24.35;17.35;;;;;;;13.07;70.58;100786.38;5064220;28;20384;-75
2022/10/23 06:52:15;;;;;;;27.63;16.75;;;;;;;13.88;70.14;100903.78;5057314;28;20029;-75
2022/10/23 06:54:41;;;;;;;22.63;14.63;;;;;;;13.28;69.91;100800.38;5077664;28;20496;-73
2022/10/23 06:57:06;;;;;;;20.27;15.35;;;;;;;13.35;69.87;100801.22;5079580;28;20047;-73
2022/10/23 06:59:32;;;;;;;26.92;15.55;;;;;;;13.35;69.44;100794.19;5087164;28;20468;-73
2022/10/23 07:01:58;;;;;;;27.63;15.38;;;;;;;14.11;69.45;100916.81;5066724;28;20124;-74
2022/10/23 07:04:24;;;;;;;30.98;16.80;;;;;;;14.25;68.39;100923.75;5071543;28;20047;-73
2022/10/23 07:06:49;;;;;;;19.45;14.73;;;;;;;14.22;68.61;100905.31;5069607;28;20080;-74
2022/10/23 07:09:15;;;;;;;22.45;15.07;;;;;;;13.77;68.94;100812.41;5066596;28;20115;-73
2022/10/23 07:11:40;;;;;;;19.92;15.55;;;;;;;14.56;68.14;100941.19;5058097;28;20044;-74
2022/10/23 07:14:05;;;;;;;26.00;15.57;;;;;;;14.68;67.50;100948.13;5070447;28;20484;-75
2022/10/23 07:16:31;;;;;;;20.15;14.07;;;;;;;14.72;67.22;100935.75;5081129;28;20258;-75
2022/10/23 07:19:06;;;;;;;25.00;15.27;;;;;;;14.80;67.47;100939.22;5071759;28;20515;-73
2022/10/23 07:21:33;;;;;;;24.63;15.13;;;;;;;14.78;66.83;100909.28;5050468;28;20070;-74
2022/10/23 07:24:01;;;;;;;23.48;14.73;;;;;;;14.47;66.84;100847.91;5063543;28;20055;-74
2022/10/23 07:26:27;;;;;;;21.55;14.88;;;;;;;14.42;66.61;100834.75;5067883;28;20036;-76
2022/10/23 07:28:54;;;;;;;18.52;13.55;;;;;;;15.17;66.45;100952.06;5056907;28;20036;-73
2022/10/23 07:31:23;;;;;;;22.75;14.75;;;;;;;14.97;66.07;100909.97;5079562;28;20392;-72
2022/10/23 07:33:50;;;;;;;20.35;15.68;;;;;;;14.98;66.30;100903.78;5061295;28;20189;-73
2022/10/23 07:36:16;;;;;;;23.17;14.30;;;;;;;15.41;65.89;100975.59;5071734;28;20036;-74
2022/10/23 07:38:41;;;;;;;25.42;14.85;;;;;;;15.49;66.06;100972.88;5063402;28;20073;-74
2022/10/23 07:41:07;;;;;;;20.25;14.48;;;;;;;15.53;65.79;100963.16;5078515;28;20531;-76
2022/10/23 07:43:34;;;;;;;14.85;11.82;;;;;;;15.05;65.55;100879.03;5058972;28;20028;-73
2022/10/23 07:45:59;;;;;;;22.10;14.15;;;;;;;15.39;65.25;100918.34;5083911;28;20060;-73
2022/10/23 07:48:26;;;;;;;22.58;15.57;;;;;;;15.14;65.19;100865.72;5076657;28;20029;-74
2022/10/23 07:50:53;;;;;;;23.42;14.00;;;;;;;15.70;65.68;100962.94;5060970;28;20093;-76
2022/10/23 07:53:25;;;;;;;21.20;12.50;;;;;;;15.96;64.86;100981.16;5057870;28;20055;-73
2022/10/23 07:55:59;;;;;;;19.42;12.27;;;;;;;15.92;64.55;100955.63;5070430;28;20030;-74
2022/10/23 07:58:26;;;;;;;17.75;12.18;;;;;;;15.67;64.09;100900.34;5048298;28;20487;-73
2022/10/23 08:01:01;;;;;;;19.63;13.38;;;;;;;16.21;64.45;100981.72;5072923;28;20052;-75
2022/10/23 08:03:29;;;;;;;18.38;12.05;;;;;;;15.59;63.83;100849.31;5058139;28;20103;-75
2022/10/23 08:05:55;;;;;;;16.73;12.20;;;;;;;16.37;63.44;100969.13;5065973;28;20052;-75
2022/10/23 08:08:22;;;;;;;19.08;11.23;;;;;;;16.04;63.16;100895.47;5074253;28;20044;-75
2022/10/23 08:10:50;;;;;;;17.33;13.18;;;;;;;16.01;62.73;100865.50;5061824;28;20143;-73
2022/10/23 08:13:16;;;;;;;27.77;13.52;;;;;;;16.76;62.96;100970.25;5078951;28;20036;-74
2022/10/23 08:15:43;;;;;;;19.73;12.70;;;;;;;16.45;62.77;100912.47;5050343;28;20048;-74
2022/10/23 08:18:11;;;;;;;23.42;12.85;;;;;;;16.90;62.78;100972.69;5064451;28;20041;-75
2022/10/23 08:20:44;;;;;;;18.00;12.60;;;;;;;16.82;62.55;100949.00;5080898;28;20039;-73
2022/10/23 08:23:15;;;;;;;18.00;11.27;;;;;;;17.02;62.93;100974.28;5046732;28;20056;-77
2022/10/23 08:25:41;;;;;;;14.57;10.75;;;;;;;17.09;62.34;100994.47;5079930;28;20024;-75
2022/10/23 08:28:07;;;;;;;21.38;11.30;;;;;;;16.99;61.50;100932.78;5076922;28;20051;-74
2022/10/23 08:30:33;;;;;;;24.17;12.25;;;;;;;16.75;61.38;100851.03;5079951;28;20064;-75
2022/10/23 08:32:58;;;;;;;15.30;10.55;;;;;;;17.51;60.29;100984.88;5069103;28;20517;-76
2022/10/23 08:35:24;;;;;;;18.35;11.00;;;;;;;17.57;60.28;100978.56;5059394;28;20047;-75
2022/10/23 08:37:49;;;;;;;29.10;11.48;;;;;;;17.52;60.05;100961.84;5066851;28;20458;-75
2022/10/23 08:40:22;;;;;;;12.57;9.65;;;;;;;17.03;60.56;100873.50;5071099;28;20059;-75
2022/10/23 08:43:04;;;;;;;12.98;8.50;;;;;;;16.63;60.39;100801.78;5070305;28;20040;-75
2022/10/23 08:45:51;;;;;;;23.48;14.10;;;;;;;17.84;60.30;100993.09;5086418;28;20036;-75
2022/10/23 08:48:25;;;;;;;10.88;8.38;;;;;;;17.96;59.18;100985.75;5058170;28;20092;-75
2022/10/23 08:50:59;;;;;;;12.60;8.77;;;;;;;17.31;59.00;100867.66;5053854;28;20123;-74
2022/10/23 08:53:51;;;;;;;10.00;7.50;;;;;;;18.06;59.27;100984.66;5060898;28;20065;-75
2022/10/23 08:56:26;;;;;;;12.30;7.85;;;;;;;17.41;59.02;100865.69;5065593;28;20062;-72
2022/10/23 08:58:59;;;;;;;13.73;7.22;;;;;;;18.12;58.46;100981.84;5074926;28;20107;-72
2022/10/23 09:01:36;;;;;;;11.95;8.00;;;;;;;18.25;58.26;100991.31;5077928;28;20024;-72
2022/10/23 09:04:03;;;;;;;12.77;7.47;;;;;;;18.10;58.18;100959.78;5063593;28;20041;-72
2022/10/23 09:06:53;;;;;;;13.73;8.10;;;;;;;18.36;58.40;101004.38;5047065;28;20753;-73
2022/10/23 09:09:49;;;;;;;13.77;8.00;;;;;;;18.45;57.90;101006.81;5063457;28;20041;-73
2022/10/23 09:12:19;;;;;;;13.98;8.70;;;;;;;18.50;56.83;101004.06;5043413;28;20497;-73
2022/10/23 09:15:30;;;;;;;13.98;7.35;;;;;;;18.67;57.21;101016.94;5084093;28;20036;-73
2022/10/23 09:18:06;;;;;;;11.63;6.53;;;;;;;18.78;56.02;101033.53;4978892;28;20095;-73
2022/10/23 09:20:34;;;;;;;10.25;7.03;;;;;;;18.33;55.77;100922.94;5041062;28;20052;-73
2022/10/23 09:23:02;;;;;;;11.57;7.28;;;;;;;18.88;56.06;101015.56;5056817;28;20036;-74
2022/10/23 09:25:32;;;;;;;13.13;7.20;;;;;;;18.95;56.08;101015.38;5038982;28;20465;-72
2022/10/23 09:28:00;;;;;;;13.07;4.93;;;;;;;18.65;55.98;100957.63;5051526;28;20136;-73
2022/10/23 09:30:36;;;;;;;10.90;6.18;;;;;;;19.12;54.83;101022.94;5048078;28;20032;-73
2022/10/23 09:33:33;;;;;;;9.27;5.72;;;;;;;19.12;54.90;101020.25;5047542;28;20144;-75
2022/10/23 09:36:19;;;;;;;9.35;5.32;;;;;;;19.22;55.21;101025.34;5046981;28;20037;-74
2022/10/23 09:38:44;;;;;;;6.45;4.60;;;;;;;19.23;54.54;101016.47;5060201;28;20041;-73
2022/10/23 09:41:28;;;;;;;9.25;4.55;;;;;;;19.29;53.89;101024.28;5057906;28;20040;-75
2022/10/23 09:44:05;;;;;;;9.57;5.18;;;;;;;19.40;53.73;101024.88;5051723;28;20036;-73
2022/10/23 09:46:40;;;;;;;8.75;4.47;;;;;;;19.52;53.96;101021.00;5057059;28;20025;-74
2022/10/23 09:49:15;;;;;;;23.08;5.47;;;;;;;19.48;54.61;101014.91;5064423;28;20108;-74
2022/10/23 09:51:58;;;;;;;9.60;4.32;;;;;;;19.71;51.91;100976.13;5062120;28;20112;-74
2022/10/23 09:54:24;;;;;;;15.68;6.00;;;;;;;19.84;51.81;100984.66;5041590;28;20056;-72
2022/10/23 09:56:51;;;;;;;10.45;5.43;;;;;;;19.79;53.56;100998.09;5063055;28;20159;-75
2022/10/23 09:59:30;;;;;;;7.82;4.65;;;;;;;19.87;53.28;100996.06;5054855;28;20048;-74
2022/10/23 10:01:58;;;;;;;9.30;4.93;;;;;;;19.81;53.97;100993.59;5066590;28;20051;-73
2022/10/23 10:04:40;;;;;;;6.35;3.95;;;;;;;19.87;53.63;101003.19;5068965;28;20078;-73
2022/10/23 10:07:19;;;;;;;11.73;3.75;;;;;;;19.40;52.33;100881.16;5068972;28;20052;-73
2022/10/23 10:09:45;;;;;;;9.60;4.80;;;;;;;19.70;52.52;100948.63;5072855;28;20053;-74
2022/10/23 10:12:50;;;;;;;11.07;5.88;;;;;;;19.93;52.69;100995.03;5068993;28;20044;-74
2022/10/23 10:15:27;;;;;;;6.30;3.63;;;;;;;20.03;52.76;100994.69;5050671;28;20040;-73
2022/10/23 10:18:13;;;;;;;8.40;4.80;;;;;;;20.41;50.68;100989.97;5071358;28;20078;-73
2022/10/23 10:21:12;;;;;;;13.70;4.38;;;;;;;20.37;50.58;100987.47;5080272;28;20048;-73
2022/10/23 10:24:05;;;;;;;9.65;4.15;;;;;;;19.57;51.17;100838.94;5060334;28;20048;-74
2022/10/23 10:26:52;;;;;;;5.80;3.97;;;;;;;20.43;51.10;100961.47;5074188;28;20388;-75
2022/10/23 10:29:28;;;;;;;6.18;3.50;;;;;;;20.51;51.08;100979.03;5062721;28;20475;-73
2022/10/23 10:32:18;;;;;;;6.57;4.18;;;;;;;20.38;50.87;100970.56;5080034;28;20479;-72
2022/10/23 10:35:18;;;;;;;6.88;3.67;;;;;;;20.13;48.99;100851.41;5080589;28;20082;-73
2022/10/23 10:38:02;;;;;;;8.80;4.20;;;;;;;20.80;49.61;100978.97;5075028;28;20036;-73
2022/10/23 10:40:34;;;;;;;11.00;4.28;;;;;;;20.72;50.31;100969.50;5068736;28;20119;-73
2022/10/23 10:43:09;;;;;;;11.13;4.03;;;;;;;20.92;48.33;100955.50;5070154;28;20075;-73
2022/10/23 10:45:42;;;;;;;9.95;4.38;;;;;;;20.96;48.77;100959.81;5063998;28;20044;-74
2022/10/23 10:48:14;;;;;;;8.43;4.18;;;;;;;20.25;48.91;100852.78;5062403;28;20406;-74
2022/10/23 10:50:49;;;;;;;7.68;4.60;;;;;;;21.08;48.66;100962.03;5069979;28;20040;-74
2022/10/23 10:53:33;;;;;;;7.75;4.70;;;;;;;21.09;47.91;100966.44;5072185;28;20074;-72
2022/10/23 10:56:03;;;;;;;7.60;4.32;;;;;;;20.91;47.87;100919.06;5076800;28;20032;-72
2022/10/23 10:58:43;;;;;;;7.15;5.57;;;;;;;20.48;47.87;100840.50;5073751;28;20502;-73
2022/10/23 11:01:26;;;;;;;9.13;5.57;;;;;;;21.19;47.42;100959.88;5082857;28;20149;-73
2022/10/23 11:04:26;;;;;;;9.25;3.88;;;;;;;21.36;47.01;100950.41;5066764;28;20044;-75
2022/10/23 11:06:53;;;;;;;8.77;5.18;;;;;;;20.74;47.65;100818.28;5049167;28;20060;-73
2022/10/23 11:09:27;;;;;;;15.30;5.65;;;;;;;21.35;47.14;100889.91;5055119;28;20506;-73
2022/10/23 11:11:53;;;;;;;9.48;5.40;;;;;;;21.71;47.18;100955.31;5046018;28;21506;-73
2022/10/23 11:14:22;;;;;;;7.57;5.15;;;;;;;21.53;46.83;100933.78;5073955;28;20223;-74
2022/10/23 11:16:51;;;;;;;6.70;3.92;;;;;;;20.90;46.71;100819.47;5081031;28;20028;-74
2022/10/23 11:19:39;;;;;;;12.85;6.38;;;;;;;21.35;46.18;100869.41;5078759;28;20460;-73
2022/10/23 11:22:17;;;;;;;7.88;4.10;;;;;;;21.56;47.47;100942.53;5067206;28;20048;-73
2022/10/23 11:25:32;;;;;;;9.82;6.10;;;;;;;21.65;47.68;100933.31;5068654;28;20049;-74
2022/10/23 11:28:33;;;;;;;6.40;3.15;;;;;;;21.71;46.27;100931.28;5076174;28;20542;-76
2022/10/23 11:31:00;;;;;;;7.75;4.10;;;;;;;21.70;46.44;100945.59;5068286;28;20140;-72